GalaxyControl    Crypto Space Commander - Recent OpenSea Sales   v0.1
Ships and modules from Crypto Space Commanders sold for CryptoCurrency and thus real value.
Data is gathered every 6 hours from the OpenSea API. Since the main reason to gather the data is to track prices only non-bundled sales are processed.
Transaction Owner Asset Price
Time ID Old owner New owner Icon Asset Tech Currency Price Dollar value
08.10.2020 11:49 51807213 PhaseWalk lodaddy Packer MP T1 ETH 0,220 76,7
08.10.2020 10:16 51795097 PhaseWalk 824f7991 Carrier MP T2 ETH 0,375 130,8
24.09.2020 05:38 48605260 chikachinchin PhaseWalk Carrier MP T2 ETH 0,600 196,3
09.09.2020 06:01 45364581 PhaseWalk BudderkingDliveOfficial Sovereign Class T1 ETH 0,266 108,1
31.07.2020 21:17 37095078 PhaseWalk 1672044c Crusader FF T1 ETH 1,950 785,2
25.07.2020 01:19 35903405 PhaseWalk 309d4133 Sovereign Class T1 ETH 0,330 132,9
29.05.2020 23:18 28409939 PhaseWalk spaceman Voyager MP T1 ETH 0,265 58,0
05.05.2020 13:16 22044620 HichamDeMontpellier PhaseWalk Voyager MP T1 ETH 0,230 46,8
05.05.2020 13:13 22044085 PhaseWalk Supercryptobros U.S.S. Voyager NCC-74656 T1 ETH 0,490 99,7
01.05.2020 13:43 20999748 PhaseWalk 380b1528 Sol XXI Dredge Expander T3 WETH 0,050 10,6
01.05.2020 10:59 20969293 PhaseWalk Slats3 Deflector Shields T1 ETH 0,012 2,5
01.05.2020 10:57 20968921 PhaseWalk Slats3 Deflector Shields T1 ETH 0,012 2,5
01.05.2020 10:57 20968887 PhaseWalk Slats3 Deflector Shields T1 ETH 0,012 2,5
30.04.2020 00:12 20632805 PhaseWalk gkhomes TRAVELERS S1 FTL Drive T2 ETH 0,020 4,4
29.04.2020 15:16 20572430 PhaseWalk gkhomes TRAVELERS S1 FTL Drive T2 ETH 0,020 4,3
28.04.2020 18:51 20388008 PhaseWalk Tinman Vulcan Kaya Z1 Mesh Caster T2 ETH 0,050 9,8
26.04.2020 17:40 19971569 PhaseWalk ChuckyPwn Vulcan Kaya Z1 Mesh Caster T2 ETH 0,075 14,7
26.04.2020 17:39 19971525 PhaseWalk ChuckyPwn Quiver D22 Laser Booster T3 ETH 0,070 13,7
26.04.2020 17:09 19968448 PhaseWalk Money_Maker Ronin XR1 Refining Amplifier T2 ETH 0,020 3,9
26.04.2020 15:07 19952449 PhaseWalk 142536x Sol XXI Dredge Expander T2 ETH 0,020 3,9
17.04.2020 05:17 18839676 PhaseWalk Acido Xeno 1 Pulse Scanner T2 ETH 0,040 6,8
17.04.2020 02:37 18835486 PhaseWalk gkhomes Xeno 1 Pulse Scanner T2 ETH 0,040 6,9
16.04.2020 18:49 18820671 PhaseWalk 25fec9a7 Xeno 1 Pulse Scanner T1 ETH 0,015 2,6
12.04.2020 18:17 18647287 PhaseWalk BlackKettle Breeze MP T1 ETH 0,045 7,4
12.04.2020 18:14 18647183 PhaseWalk BlackKettle Oasis MP T1 ETH 0,220 36,1
12.04.2020 09:09 18631843 PhaseWalk ChuckdGaf VS22 Titanium Mesh T1 ETH 0,010 1,6
12.04.2020 06:52 18629099 PhaseWalk c7d2d152 Dolo Dji21 Mesh Booster T2 WETH 0,020 3,1
11.04.2020 23:35 18617747 PhaseWalk BudderkingDliveOfficial Reaper R4000 Inferno Cannon T1 ETH 0,010 1,6
11.04.2020 16:57 18604377 PhaseWalk x13v VI 51 Trilite Beam Cutter T1 ETH 0,012 1,9
10.04.2020 01:17 18534066 PhaseWalk 142536x Gray U1 Nanotube Grid T1 ETH 0,010 1,7
09.04.2020 09:19 18500155 PhaseWalk Acido BB Alpha Core No. 26 T1 ETH 0,015 2,6
09.04.2020 09:18 18500122 PhaseWalk Acido BB Alpha Core No. 26 T1 ETH 0,015 2,6
09.04.2020 06:24 18495273 PhaseWalk DojiFlip 100V PicoPlasma Beams T1 ETH 0,020 3,4
09.04.2020 05:58 18494551 PhaseWalk x13v Anti-Matter ASR91 Collector T1 ETH 0,015 2,6
09.04.2020 05:52 18494410 PhaseWalk ChuckdGaf Dolo Dji21 Mesh Booster T2 ETH 0,025 4,3
08.04.2020 06:16 18448625 PhaseWalk 380b1528 DR1 Impact Shaker Deck T1 ETH 0,010 1,7
07.04.2020 17:05 18420723 PhaseWalk Ambrose Kindled R1 Plasma Shield T1 ETH 0,005 0,8
06.04.2020 18:38 18369272 PhaseWalk erock BB Alpha Core No. 26 T1 ETH 0,020 3,3
06.04.2020 11:24 18350899 PhaseWalk x13v Firecat MP T1 ETH 0,275 43,7
06.04.2020 02:23 18334989 PhaseWalk BlackKettle Reaper R4000 Inferno Cannon T1 ETH 0,022 3,2
05.04.2020 19:50 18325952 PhaseWalk HichamDeMontpellier Xeno 1 Pulse Scanner T1 ETH 0,010 1,4
05.04.2020 17:26 18321827 PhaseWalk spaceballs3000 Reaper R4000 Inferno Cannon T1 ETH 0,022 3,2
05.04.2020 04:39 18302674 PhaseWalk Gorn-Hegemony-Guild-and-Community DoloPlasma RD100 Beam Set T1 ETH 0,008 1,1
05.04.2020 04:36 18302610 PhaseWalk Gorn-Hegemony-Guild-and-Community Dolo A51 Vortex collector T1 ETH 0,010 1,4
05.04.2020 01:00 18298199 PhaseWalk shirou Vital CP6 Conversion Core T1 ETH 0,015 2,2
02.04.2020 19:11 18193173 Ranger PhaseWalk U.S.S. Voyager NCC-74656 T1 ETH 0,780 110,2
02.04.2020 18:43 18191557 PhaseWalk Tinman Horizon MP T1 ETH 0,800 113,1
02.04.2020 15:18 18181977 PhaseWalk magique Xeno 1 Pulse Scanner T1 ETH 0,010 1,4
01.04.2020 23:21 18154322 PhaseWalk d22c4c38 Xeno 1 Pulse Scanner T1 ETH 0,010 1,4
01.04.2020 23:20 18154306 PhaseWalk d22c4c38 Kindled R1 Plasma Shield T1 ETH 0,005 0,7
01.04.2020 23:19 18154294 PhaseWalk d22c4c38 Kindled R1 Plasma Shield T2 ETH 0,012 1,6
01.04.2020 23:18 18154246 PhaseWalk d22c4c38 Argent Converter v3.0.5 T1 ETH 0,012 1,6
01.04.2020 18:11 18144122 PhaseWalk 380b1528 Titanium Riffled G22 Collector T1 ETH 0,010 1,3
01.04.2020 15:23 18136880 PhaseWalk x13v VS22 Titanium Mesh T1 ETH 0,010 1,3
01.04.2020 15:18 18136471 PhaseWalk x13v VS22 Titanium Mesh T1 ETH 0,010 1,3
01.04.2020 15:15 18136127 PhaseWalk x13v VS22 Titanium Mesh T1 ETH 0,010 1,3
01.04.2020 11:33 18127981 PhaseWalk x13v VS1 Single Deck Shaker T1 ETH 0,010 1,3
01.04.2020 11:33 18127982 PhaseWalk x13v VS1 Single Deck Shaker T1 ETH 0,010 1,3
01.04.2020 11:15 18127334 PhaseWalk 380b1528 KG1 Shaker Deck Dampener T1 ETH 0,012 1,6
01.04.2020 11:14 18127319 PhaseWalk 380b1528 DXN1 Graviton Dredge Collector T1 ETH 0,012 1,6
01.04.2020 11:11 18127262 PhaseWalk 380b1528 Titanium Riffled G22 Collector T1 ETH 0,010 1,3
01.04.2020 10:00 18125470 PhaseWalk Heisenberg KG1 Shaker Deck Dampener T1 ETH 0,012 1,6
28.03.2020 23:35 17976632 PhaseWalk 380b1528 Oasis MP T1 ETH 0,200 26,0
21.03.2020 16:09 17626311 PhaseWalk ChuckdGaf Kindled R2 Kinetic Shield T1 WETH 0,010 1,3
21.03.2020 16:09 17626313 PhaseWalk ChuckdGaf Kindled R2 Kinetic Shield T1 WETH 0,010 1,3
21.03.2020 16:09 17626312 PhaseWalk ChuckdGaf Kindled R2 Kinetic Shield T1 WETH 0,010 1,3
21.03.2020 04:40 17608106 PhaseWalk Bohemian TRAVELERS S1 FTL Drive T1 ETH 0,010 1,3
20.03.2020 22:00 17595024 PhaseWalk Bohemian TRAVELERS S1 FTL Drive T1 ETH 0,010 1,3
20.03.2020 21:58 17594953 PhaseWalk Bohemian TRAVELERS S1 FTL Drive T1 ETH 0,010 1,3
20.03.2020 14:23 17574043 PhaseWalk MR-DAPP Kindled R1 Plasma Shield T3 ETH 0,025 3,6
20.03.2020 14:23 17574001 PhaseWalk MR-DAPP Kindled R1 Plasma Shield T3 ETH 0,025 3,6
20.03.2020 13:06 17570685 PhaseWalk shirou Binary Graviton Laser T2 ETH 0,056 8,0
19.03.2020 01:41 17479789 PhaseWalk UnityMS Kindled R1 Plasma Shield T3 ETH 0,033 3,8
Apache Webserver PHP MySQL Firefox Twitter @Galaxy_Control   |   Support me via:   Support via Ethereum Support via Patreon